Laman API Video Percuma Terbaik

AVDBAPI.COM

Cari katalog, semak rekod, dan salin URL API bersih daripada papan pemuka pantas.

Telegram Join Our Telegram Community for Updates!
Today
93
Kemaskini Hari Ini
Censored
313977
Censored Videos
Total
474136
Total Videos

Senarai Video

Rekod terkini disusun mengikut masa kemas kini.

ID Nama CODE Kategori Dikemaskini API
268503 H4610-KI210123 Koleksi Video Permintaan Khas H4610-KI210123 Tanpa sensor 2025-08-29 13:48:50 API
268502 030919-046 Video Bocor Mak Cik ~ Kes Rieko Kobashi ~ 030919-046 Tanpa sensor 2025-08-29 13:48:40 API
268501 C0930-KI191031 Eriko Taniguchi, Gadis Hot Berusia 21 Tahun C0930-KI191031 Tanpa sensor 2025-08-29 13:48:30 API
268500 HEYZO-2289 Mina [Minna] Seorang nympho yang menggelar dirinya sebagai pemuja seks HEYZO-2289 Tanpa sensor 2025-08-29 13:48:20 API
268499 061320-001 Fail Wanita Berahi: Maki Koizumi 061320-001 Tanpa sensor 2025-08-29 13:48:10 API
268498 081618_729 Koleksi Model Seksi Riko Hidaka 081618_729 Tanpa sensor 2025-08-29 13:48:00 API
268497 101319-01 Aku kena kongkek dengan kawan boyfriend aku 101319-01 Tanpa sensor 2025-08-29 13:47:50 API
268496 H0930-KI200407 Saki Fukunishi 32 Tahun H0930-KI200407 Tanpa sensor 2025-08-29 13:47:40 API
268495 030919-047 Wanita kahwin yang tahu kelebihan dirinya dan pandai bermanja ~ Sentiasa memandang kamera tidak kira apa yang anda lakukan ~ 030919-047 Tanpa sensor 2025-08-29 13:47:30 API
268494 K1434 Wanita Mangsa K1434 Tanpa sensor 2025-08-29 13:47:20 API
268493 HEYZO-2256 Impian Lelaki! Uhauha Reverse 3P! !! Vol.4 HEYZO-2256 Tanpa sensor 2025-08-29 13:47:10 API
268492 H4610-KI210126 Saya Kikuchi Berumur 20 Tahun H4610-KI210126 Tanpa sensor 2025-08-29 13:47:00 API
268491 FC2-PPV-4462217 Gadis JD Miho (21) Berambut Hitam Panjang Berpijama - Kelihatan sangat kemas, tetapi jari FC2-PPV-4462217 Tanpa sensor 2025-08-29 13:46:50 API
268490 C0930-KI191102 Gadis 20 Tahun Dengan Fetish Kencing C0930-KI191102 Tanpa sensor 2025-08-29 13:46:40 API
268489 101419-01 Saya akan buat deep throat yang dalam untuk awak 101419-01 Tanpa sensor 2025-08-29 13:46:30 API
268488 081718_730 Perempuan Yukata yang Sangat Nakal Natsumi Hirose 081718_730 Tanpa sensor 2025-08-29 13:46:20 API
268487 031219-048 Telan Mani Isteri Orang 80 ~ Wanita Matang Ini Adalah Sommelier Mani - 031219-048 Tanpa sensor 2025-08-29 13:46:10 API
268486 061620-001 Wanita Tanpa Seks dengan Air Liur dan Cecair Faraj Moe Osaki 061620-001 Tanpa sensor 2025-08-29 13:46:00 API
268485 H0930-KI200412 Wanita Seksi 38 Tahun Seiko Kawamoto H0930-KI200412 Tanpa sensor 2025-08-29 13:45:50 API
268484 101519-01 Aku Ditipu Penemuduga Lalu Dikongkek 101519-01 Tanpa sensor 2025-08-29 13:45:40 API
268483 H4610-KI210128 Gadis 19 Tahun Yuina Kitami H4610-KI210128 Tanpa sensor 2025-08-29 13:45:30 API
268481 FC2-PPV-4462070 Diskaun 70% [Punggung Besar] Lelaki kurus yang menjengkelkan. Tubuh sensitifnya menjadi lelaki kacak yang matang dengan bantuan zakar dan suntikan FC2-PPV-4462070 Tanpa sensor 2025-08-29 13:45:10 API
268478 031419-049 Sayang, biarkan abang beli seluar dalam yang abang pakai sekarang! ~ Menikmati pakaian dalam bunga milik isteri montok berpayudara besar ~ 031419-049 Tanpa sensor 2025-08-29 13:44:40 API
268477 H0930-KI200411 Pek Emas: Isteri Pekerja Berusia 20 Tahun H0930-KI200411 Tanpa sensor 2025-08-29 13:44:30 API
268476 H4610-KI210131 Yumi Shibuya Wanita Cantik Berusia 28 Tahun H4610-KI210131 Tanpa sensor 2025-08-29 13:44:20 API
268475 061720-001 Si isteri muncul di tempat pembuangan sampah tanpa bra ~ Payudara empuk diramas dari belakang ~ Nene Sakura 061720-001 Tanpa sensor 2025-08-29 13:44:10 API
268474 031519-050 Saya buat diam-diam walaupun keluarga tak tahu ~ Solekan buat sensitiviti jadi dua kali ganda ~ 031519-050 Tanpa sensor 2025-08-29 13:44:00 API
268473 082018_732 Pelacur Yuna Sasaki 082018_732 Tanpa sensor 2025-08-29 13:43:50 API
268472 HEYZO-2258 Saya suka puting! Pelacur Juri HEYZO-2258 Tanpa sensor 2025-08-29 13:43:40 API
268471 101719-01 Saya ni miang! Rasa sedap sangat selepas kena conteng sana sini 101719-01 Tanpa sensor 2025-08-29 13:43:30 API
268470 K1435 Mangsa Wanita Rio Kobayashi K1435 Tanpa sensor 2025-08-29 13:43:20 API
268469 H0930-KI200418 Masturbasi Sambil Selfie Yang Menggiurkan H0930-KI200418 Tanpa sensor 2025-08-29 13:43:10 API
268468 FC2-PPV-4463099 Harga terhad 1980pt untuk 3 hari! [Siri Babak Wanita Dewasa] 3 gadis cantik! Video underground terbaru dilepaskan serta-merta! FC2-PPV-4463099 Tanpa sensor 2025-08-29 13:43:00 API
268467 H4610-ORI1747 Ayaka Kogiri, 21 tahun H4610-ORI1747 Tanpa sensor 2025-08-29 13:42:50 API
268466 061920-001 Gangguan di Kereta Api - Wanita Pejabat Cantik Menunggu Diganggu 061920-001 Tanpa sensor 2025-08-29 13:42:40 API
268465 082318_733 Kegilaan Facesitting Deluxe 2 082318_733 Tanpa sensor 2025-08-29 13:42:30 API
268464 H0930-KI200419 Tomomi Komine Wanita Berusia 28 Tahun H0930-KI200419 Tanpa sensor 2025-08-29 13:42:20 API
268463 HEYZO-2259 Wanita matang jalang ketagih seks dalam aksi 4P menggila HEYZO-2259 Tanpa sensor 2025-08-29 13:42:10 API
268462 031619-051 Buku Gambar Khemak Isteri Orang 111 031619-051 Tanpa sensor 2025-08-29 13:42:00 API
268460 062020-001 Debut Vol.59 ~ Influencer Delivery Health yang hot, sedia untuk dikentot bila-bila masa ~ Miyu Ohno 062020-001 Tanpa sensor 2025-08-29 13:41:40 API
268459 H4610-KI210130 Eri Hamada, Gadis 22 Tahun H4610-KI210130 Tanpa sensor 2025-08-29 13:41:30 API
268458 101919-01 Cuba pegang batang aku 101919-01 Tanpa sensor 2025-08-29 13:41:20 API
268457 K1436 Wanita Mangsa - K1436 Tanpa sensor 2025-08-29 13:41:10 API
268456 031619-052 Percutian curang yang menggoda di kolam air panas 47 031619-052 Tanpa sensor 2025-08-29 13:41:00 API
268455 H0930-KI200421 Rie Takeuchi Wanita Seksi Berusia 34 Tahun H0930-KI200421 Tanpa sensor 2025-08-29 13:40:50 API
268454 082518_734 Koleksi Model Seksi Juli Kisaragi 082518_734 Tanpa sensor 2025-08-29 13:40:40 API
268453 HEYZO-2260 Ciuman Tangan Menggoda Kanda Luna HEYZO-2260 Tanpa sensor 2025-08-29 13:40:30 API
268452 H4610-KI210202 Gadis 21 Tahun Emi Hasegawa H4610-KI210202 Tanpa sensor 2025-08-29 13:40:20 API
268451 062320-001 Seks Basah Kuyup Chihiro Dilumuri Mani yang Tidak Berhenti Mengalir 062320-001 Tanpa sensor 2025-08-29 13:40:10 API
268450 FC2-PPV-4463190 Bayar hutang sangat murah hati! Isteri yang polos dan comel terjumpa kerja rahsia suaminya, lalu ditelan mentah-mentah oleh Yogari! FC2-PPV-4463190 Tanpa sensor 2025-08-29 13:40:00 API